Time;durP1;ratioP1;P1;durP2;ratioP2;P2;SDS_P1;SDS_P2;PMS_P1;PMS_P2;Temp;Humidity;BMP_temperature;BMP_pressure;BME280_temperature;BME280_humidity;BME280_pressure;Samples;Min_cycle;Max_cycle;Signal;HPM_P1;HPM_P2
2023/09/24 21:02:03;;;;;;;3.13;0.82;;;;;;;;;;5069183;27;57993;-69
2023/09/24 21:04:29;;;;;;;3.83;1.20;;;;;;;;;;5058634;27;58069;-69
2023/09/24 21:06:54;;;;;;;3.37;0.90;;;;;;;;;;5060146;27;58000;-70
2023/09/24 21:09:19;;;;;;;6.30;0.97;;;;;;;;;;5061255;27;58044;-71
2023/09/24 21:11:44;;;;;;;2.40;1.43;;;;;;;;;;5058698;27;59062;-70
2023/09/24 21:14:10;;;;;;;3.83;1.27;;;;;;;;;;5060894;27;58044;-68
2023/09/24 21:16:35;;;;;;;1.67;1.03;;;;;;;;;;5058910;27;57742;-71
2023/09/24 21:19:00;;;;;;;1.33;0.80;;;;;;;;;;5062948;27;58117;-71
2023/09/24 21:21:26;;;;;;;1.00;0.87;;;;;;;;;;5060098;27;58012;-71
2023/09/24 21:23:51;;;;;;;0.85;0.70;;;;;;;;;;5060060;27;57835;-68
2023/09/24 21:26:16;;;;;;;2.75;0.88;;;;;;;;;;5060279;27;58243;-67
2023/09/24 21:28:44;;;;;;;5.23;1.70;;;;;;;;;;5057859;27;58024;-67
2023/09/24 21:31:09;;;;;;;;;;;;;;;;;;5059499;27;59572;-72
2023/09/24 21:33:34;;;;;;;5.82;1.33;;;;;;;;;;5057420;27;58006;-69
2023/09/24 21:36:00;;;;;;;2.30;1.27;;;;;;;;;;5059771;27;58651;-69
2023/09/24 21:38:25;;;;;;;2.67;0.88;;;;;;;;;;5058527;27;59202;-70
2023/09/24 21:40:50;;;;;;;4.00;1.38;;;;;;;;;;5058896;27;57934;-69
2023/09/24 21:43:16;;;;;;;3.67;1.03;;;;;;;;;;5060620;27;58479;-69
2023/09/24 21:45:41;;;;;;;3.63;0.80;;;;;;;;;;5056995;27;57798;-69
2023/09/24 21:48:06;;;;;;;2.20;0.60;;;;;;;;;;5057797;27;57955;-69
2023/09/24 21:50:31;;;;;;;7.57;1.43;;;;;;;;;;5060092;27;57879;-71
2023/09/24 21:52:56;;;;;;;0.73;0.63;;;;;;;;;;5058866;27;58022;-70
2023/09/24 21:55:21;;;;;;;3.03;0.75;;;;;;;;;;5059985;27;57910;-70
2023/09/24 21:57:47;;;;;;;1.37;1.27;;;;;;;;;;5057874;27;59585;-70
2023/09/24 22:00:18;;;;;;;12.70;1.20;;;;;;;;;;5058447;27;57875;-71
2023/09/24 22:02:44;;;;;;;4.55;0.80;;;;;;;;;;5057513;27;58133;-70
2023/09/24 22:05:09;;;;;;;1.33;0.90;;;;;;;;;;5059540;27;59093;-70
2023/09/24 22:07:34;;;;;;;3.53;1.30;;;;;;;;;;5056654;27;58011;-70
2023/09/24 22:09:59;;;;;;;1.75;0.60;;;;;;;;;;5059062;27;57898;-70
2023/09/24 22:12:25;;;;;;;1.43;0.80;;;;;;;;;;5052003;27;58093;-70
2023/09/24 22:14:50;;;;;;;1.13;0.53;;;;;;;;;;5045945;28;57817;-70
2023/09/24 22:17:15;;;;;;;5.28;0.88;;;;;;;;;;5044252;28;58599;-70
2023/09/24 22:19:40;;;;;;;0.70;0.50;;;;;;;;;;5045226;27;57753;-70
2023/09/24 22:22:05;;;;;;;1.40;0.77;;;;;;;;;;5045804;28;57765;-71
2023/09/24 22:24:31;;;;;;;0.93;0.70;;;;;;;;;;5043178;28;58861;-71
2023/09/24 22:26:57;;;;;;;1.33;0.70;;;;;;;;;;5045567;28;58174;-74
2023/09/24 22:29:22;;;;;;;1.67;0.70;;;;;;;;;;5043329;27;59081;-70
2023/09/24 22:31:47;;;;;;;1.30;0.73;;;;;;;;;;5043842;28;58171;-70
2023/09/24 22:34:12;;;;;;;0.77;0.35;;;;;;;;;;5046574;28;57100;-71
2023/09/24 22:36:37;;;;;;;0.57;0.57;;;;;;;;;;5043732;28;59410;-70
2023/09/24 22:39:02;;;;;;;0.57;0.50;;;;;;;;;;5044248;28;58041;-70
2023/09/24 22:41:27;;;;;;;1.23;0.50;;;;;;;;;;5044877;28;57664;-70
2023/09/24 22:43:53;;;;;;;0.60;0.53;;;;;;;;;;5042241;28;58636;-71
2023/09/24 22:46:18;;;;;;;0.77;0.50;;;;;;;;;;5043454;28;57927;-71
2023/09/24 22:48:43;;;;;;;1.27;0.63;;;;;;;;;;5044718;28;58138;-70
2023/09/24 22:51:08;;;;;;;2.53;0.60;;;;;;;;;;5045063;28;57840;-71
2023/09/24 22:53:33;;;;;;;1.98;0.50;;;;;;;;;;5044244;28;57935;-70
2023/09/24 22:55:58;;;;;;;0.50;0.50;;;;;;;;;;5044730;28;58074;-71
2023/09/24 22:58:24;;;;;;;0.50;0.43;;;;;;;;;;5046382;28;57845;-71
2023/09/24 23:00:49;;;;;;;2.53;1.02;;;;;;;;;;5043718;28;57717;-70
2023/09/24 23:03:14;;;;;;;0.80;0.50;;;;;;;;;;5045311;28;59190;-71
2023/09/24 23:05:40;;;;;;;0.88;0.40;;;;;;;;;;5059556;27;58630;-70
2023/09/24 23:08:05;;;;;;;0.30;0.30;;;;;;;;;;5044271;28;57732;-70
2023/09/24 23:10:31;;;;;;;1.23;0.60;;;;;;;;;;5045275;28;58191;-70
2023/09/24 23:12:56;;;;;;;0.40;0.40;;;;;;;;;;5045527;28;58345;-70
2023/09/24 23:15:21;;;;;;;1.30;0.45;;;;;;;;;;5044841;28;59595;-71
2023/09/24 23:17:50;;;;;;;0.67;0.53;;;;;;;;;;5044667;28;57827;-70
2023/09/24 23:20:16;;;;;;;1.65;0.45;;;;;;;;;;5045412;28;57862;-71
2023/09/24 23:22:41;;;;;;;0.60;0.47;;;;;;;;;;5044230;28;58103;-70
2023/09/24 23:25:07;;;;;;;0.50;0.50;;;;;;;;;;5043903;28;57815;-70
2023/09/24 23:27:32;;;;;;;0.40;0.30;;;;;;;;;;5050041;27;58744;-70
2023/09/24 23:29:57;;;;;;;0.83;0.50;;;;;;;;;;5045495;28;58379;-71
2023/09/24 23:32:22;;;;;;;0.40;0.40;;;;;;;;;;5044047;28;57856;-71
2023/09/24 23:34:48;;;;;;;1.03;0.60;;;;;;;;;;5043877;28;58962;-70
2023/09/24 23:37:14;;;;;;;0.43;0.43;;;;;;;;;;5044769;28;58087;-70
2023/09/24 23:39:39;;;;;;;0.40;0.40;;;;;;;;;;5042651;27;57864;-70
2023/09/24 23:42:05;;;;;;;0.50;0.50;;;;;;;;;;5043562;28;59843;-70
2023/09/24 23:44:31;;;;;;;0.60;0.50;;;;;;;;;;5043130;28;58114;-71
2023/09/24 23:46:56;;;;;;;0.40;0.30;;;;;;;;;;5043576;28;57778;-71
2023/09/24 23:49:22;;;;;;;0.83;0.63;;;;;;;;;;5043873;28;59210;-71
2023/09/24 23:51:47;;;;;;;0.70;0.63;;;;;;;;;;5043245;28;57844;-71
2023/09/24 23:54:13;;;;;;;0.40;0.20;;;;;;;;;;5042286;28;58330;-70
2023/09/24 23:56:39;;;;;;;0.50;0.50;;;;;;;;;;5042815;28;58311;-70
2023/09/24 23:59:05;;;;;;;0.30;0.30;;;;;;;;;;5043217;28;57800;-71
